Waite Hill, Ohio
Current Conditions -  °F | °C
As of 5:15 AM on Thursday 29 Jan 2015 (Local Time) from KLNN Reporting Station
Overcast Overcast  
Wind Chill: 19°   Ceiling: 8000
Heat Index: 29°   Visibility: 10mi
Dew Point:   Wind: 10mph
Humidity: 41%   Direction: 180°S
Pressure: 30"   Gusts: NA
Location:  41.6111°N, 81.3789°W
Report Text: KLNN 291015Z AUTO 18009KT 10SM OVC080 M02/M14 A3000 RMK AO1 T10191136
Loading
Personal Weather Stations






























Interactive Weather Map New forecast layout! Learn more

10-Day Weather Forecast

Advertisements
Track Severe Weather on mobile